Time;durP1;ratioP1;P1;durP2;ratioP2;P2;SDS_P1;SDS_P2;PMS_P1;PMS_P2;Temp;Humidity;BMP_temperature;BMP_pressure;BME280_temperature;BME280_humidity;BME280_pressure;Samples;Min_cycle;Max_cycle;Signal;HPM_P1;HPM_P2
2024/01/04 00:00:17;;;;;;;9.60;2.63;;;7.90;99.90;;;;;;5133721;27;20019;-79
2024/01/04 00:02:46;;;;;;;6.93;1.85;;;7.90;99.90;;;;;;5132789;27;20024;-80
2024/01/04 00:05:12;;;;;;;10.75;2.38;;;7.90;99.90;;;;;;5134949;27;20027;-78
2024/01/04 00:07:38;;;;;;;14.13;3.25;;;7.90;99.90;;;;;;5133888;27;20045;-79
2024/01/04 00:10:04;;;;;;;7.45;1.83;;;8.00;99.90;;;;;;5133938;27;20057;-79
2024/01/04 00:12:30;;;;;;;8.48;2.25;;;7.90;99.90;;;;;;5134355;27;20031;-78
2024/01/04 00:14:59;;;;;;;10.48;2.60;;;8.00;99.90;;;;;;5131747;27;20351;-79
2024/01/04 00:17:25;;;;;;;12.82;2.55;;;8.00;99.90;;;;;;5133464;27;20091;-79
2024/01/04 00:19:51;;;;;;;10.52;2.58;;;8.00;99.90;;;;;;5134384;27;20011;-79
2024/01/04 00:22:16;;;;;;;8.90;1.85;;;8.00;99.90;;;;;;5132523;27;20076;-80
2024/01/04 00:24:43;;;;;;;12.70;2.20;;;8.00;99.90;;;;;;5134350;27;20035;-81
2024/01/04 00:27:08;;;;;;;10.75;2.30;;;8.00;99.90;;;;;;5134055;27;20019;-79
2024/01/04 00:29:34;;;;;;;14.55;2.22;;;8.00;99.90;;;;;;5135215;27;20472;-77
2024/01/04 00:32:00;;;;;;;11.50;2.13;;;8.00;99.90;;;;;;5134091;27;20470;-77
2024/01/04 00:34:26;;;;;;;8.93;1.80;;;8.00;99.90;;;;;;5134864;27;20050;-78
2024/01/04 00:36:51;;;;;;;10.35;2.42;;;8.00;99.90;;;;;;5134355;27;20356;-78
2024/01/04 00:39:18;;;;;;;7.68;1.92;;;8.00;99.90;;;;;;5133999;27;20015;-78
2024/01/04 00:41:43;;;;;;;10.07;2.00;;;8.10;99.90;;;;;;5134972;27;20420;-79
2024/01/04 00:44:09;;;;;;;9.60;2.03;;;8.10;99.90;;;;;;5133152;27;20027;-78
2024/01/04 00:46:35;;;;;;;11.70;2.42;;;8.10;99.90;;;;;;5132935;27;20456;-78
2024/01/04 00:49:02;;;;;;;9.15;2.22;;;8.10;99.90;;;;;;5133401;27;20096;-78
2024/01/04 00:51:27;;;;;;;11.25;1.85;;;8.10;99.90;;;;;;5133748;27;20074;-78
2024/01/04 00:53:53;;;;;;;7.55;1.63;;;8.10;99.90;;;;;;5137669;27;20051;-78
2024/01/04 00:56:19;;;;;;;8.60;1.70;;;8.10;99.90;;;;;;5154604;27;20022;-79
2024/01/04 00:58:44;;;;;;;6.95;1.42;;;8.10;99.90;;;;;;5154195;27;20022;-80
2024/01/04 01:01:10;;;;;;;8.88;2.00;;;8.10;99.90;;;;;;5153837;27;20094;-78
2024/01/04 01:03:36;;;;;;;8.85;1.85;;;8.10;99.90;;;;;;5154919;27;20400;-80
2024/01/04 01:06:02;;;;;;;11.35;2.38;;;8.10;99.90;;;;;;5154907;27;20023;-80
2024/01/04 01:08:28;;;;;;;5.78;1.73;;;8.10;99.90;;;;;;5119485;27;20115;-79
2024/01/04 01:10:54;;;;;;;7.32;1.55;;;8.10;99.90;;;;;;5154364;27;20320;-80
2024/01/04 01:13:22;;;;;;;5.70;1.58;;;8.10;99.90;;;;;;5155296;27;20023;-80
2024/01/04 01:15:48;;;;;;;7.53;1.65;;;8.00;99.90;;;;;;5154341;27;20132;-81
2024/01/04 01:18:13;;;;;;;7.82;1.77;;;8.00;99.90;;;;;;5154766;27;20050;-79
2024/01/04 01:20:39;;;;;;;6.30;1.45;;;8.00;99.90;;;;;;5154701;27;20480;-79
2024/01/04 01:23:05;;;;;;;10.63;2.10;;;7.90;99.90;;;;;;5135756;27;20015;-79
2024/01/04 01:25:30;;;;;;;12.02;1.95;;;7.90;99.90;;;;;;5154744;27;20343;-80
2024/01/04 01:27:56;;;;;;;11.00;2.22;;;7.80;99.90;;;;;;5154079;27;20097;-80
2024/01/04 01:30:22;;;;;;;10.80;2.33;;;7.80;99.90;;;;;;5154886;27;20018;-80
2024/01/04 01:32:47;;;;;;;8.70;2.13;;;7.80;99.90;;;;;;5154580;27;20102;-80
2024/01/04 01:35:14;;;;;;;12.65;2.20;;;7.70;99.90;;;;;;5153453;27;20022;-78
2024/01/04 01:37:41;;;;;;;9.90;1.73;;;7.60;99.90;;;;;;5155077;27;20118;-79
2024/01/04 01:40:07;;;;;;;16.13;2.42;;;7.60;99.90;;;;;;5154118;27;20019;-80
2024/01/04 01:42:33;;;;;;;10.27;2.22;;;7.60;99.90;;;;;;5155006;27;20022;-79
2024/01/04 01:45:00;;;;;;;11.30;2.42;;;7.50;99.90;;;;;;5154025;27;20050;-79
2024/01/04 01:47:26;;;;;;;8.25;1.80;;;7.50;99.90;;;;;;5155582;27;20049;-79
2024/01/04 01:49:53;;;;;;;12.73;2.20;;;7.50;99.90;;;;;;5137736;27;20014;-79
2024/01/04 01:52:20;;;;;;;9.43;2.25;;;7.50;99.90;;;;;;5156841;27;20114;-77
2024/01/04 01:54:47;;;;;;;12.60;2.72;;;7.50;99.90;;;;;;5153826;27;20471;-78
2024/01/04 01:57:15;;;;;;;12.73;2.33;;;7.50;99.90;;;;;;5153576;27;20087;-78
2024/01/04 01:59:42;;;;;;;11.73;2.25;;;7.50;99.90;;;;;;5155065;27;20022;-77
2024/01/04 02:02:08;;;;;;;11.57;2.28;;;7.50;99.90;;;;;;5153556;27;20018;-78
2024/01/04 02:04:34;;;;;;;12.15;2.53;;;7.40;99.90;;;;;;5153656;27;20428;-79
2024/01/04 02:07:00;;;;;;;14.57;2.58;;;7.50;99.90;;;;;;5153948;27;20168;-79
2024/01/04 02:09:26;;;;;;;13.85;2.60;;;7.50;99.90;;;;;;5154734;27;20033;-79
2024/01/04 02:12:05;;;;;;;11.20;2.53;;;7.50;99.90;;;;;;5154348;27;20027;-79
2024/01/04 02:14:31;;;;;;;13.18;2.55;;;7.50;99.90;;;;;;5154900;27;20035;-79
2024/01/04 02:16:57;;;;;;;14.95;3.03;;;7.50;99.90;;;;;;5154061;27;20023;-79
2024/01/04 02:19:24;;;;;;;14.73;2.67;;;7.50;99.90;;;;;;5154646;27;20377;-79
2024/01/04 02:21:50;;;;;;;15.68;2.75;;;7.50;99.90;;;;;;5154880;27;20070;-79
2024/01/04 02:24:15;;;;;;;12.10;2.17;;;7.60;99.90;;;;;;5154056;27;20114;-79
2024/01/04 02:26:41;;;;;;;13.93;2.90;;;7.60;99.90;;;;;;5154290;27;20052;-79
2024/01/04 02:29:07;;;;;;;15.15;2.90;;;7.60;99.90;;;;;;5155054;27;20018;-79
2024/01/04 02:31:32;;;;;;;15.95;2.97;;;7.60;99.90;;;;;;5154950;27;20324;-78
2024/01/04 02:33:58;;;;;;;11.43;2.17;;;7.60;99.90;;;;;;5154001;27;20064;-79
2024/01/04 02:36:25;;;;;;;18.27;3.35;;;7.60;99.90;;;;;;5154866;27;20015;-78
2024/01/04 02:38:52;;;;;;;19.23;2.92;;;7.60;99.90;;;;;;5155618;27;20029;-80
2024/01/04 02:41:17;;;;;;;15.52;2.88;;;7.60;99.90;;;;;;5156063;27;20033;-78
2024/01/04 02:43:43;;;;;;;11.82;2.55;;;7.50;99.90;;;;;;5155893;27;20406;-78
2024/01/04 02:46:09;;;;;;;16.27;3.22;;;7.50;99.90;;;;;;5139287;27;20037;-78
2024/01/04 02:48:35;;;;;;;14.95;2.40;;;7.40;99.90;;;;;;5159592;27;20030;-78
2024/01/04 02:51:00;;;;;;;12.65;2.65;;;7.40;99.90;;;;;;5140283;27;20053;-79
2024/01/04 02:53:26;;;;;;;18.60;3.42;;;7.30;99.90;;;;;;5158919;27;20049;-78
2024/01/04 02:55:52;;;;;;;12.45;2.85;;;7.30;99.90;;;;;;5160939;27;20398;-80
2024/01/04 02:58:18;;;;;;;17.27;2.92;;;7.30;99.90;;;;;;5158656;27;20106;-79
2024/01/04 03:00:44;;;;;;;21.33;3.53;;;7.20;99.90;;;;;;5161036;27;20439;-78
2024/01/04 03:03:09;;;;;;;12.65;2.65;;;7.20;99.90;;;;;;5157146;27;20023;-79
2024/01/04 03:05:35;;;;;;;20.95;3.65;;;7.10;99.90;;;;;;5156842;27;20027;-80
2024/01/04 03:08:01;;;;;;;13.23;2.40;;;7.10;99.90;;;;;;5120868;27;20359;-80
2024/01/04 03:10:27;;;;;;;14.40;3.13;;;7.10;99.90;;;;;;5156831;27;20023;-79
2024/01/04 03:12:53;;;;;;;15.70;3.10;;;7.10;99.90;;;;;;5156647;27;20114;-80
2024/01/04 03:15:18;;;;;;;20.85;2.90;;;7.10;99.90;;;;;;5156862;27;20122;-80
2024/01/04 03:17:44;;;;;;;14.48;3.20;;;7.10;99.90;;;;;;5156678;27;20037;-80
2024/01/04 03:20:10;;;;;;;18.70;2.50;;;7.10;99.90;;;;;;5156569;27;20057;-80
2024/01/04 03:22:36;;;;;;;10.30;2.13;;;7.10;99.90;;;;;;5156803;27;20039;-80
2024/01/04 03:25:05;;;;;;;18.45;2.40;;;7.00;99.90;;;;;;5156172;27;20454;-79
2024/01/04 03:27:31;;;;;;;13.98;2.00;;;7.00;99.90;;;;;;5157464;27;20027;-80
2024/01/04 03:29:57;;;;;;;19.77;2.97;;;7.00;99.90;;;;;;5137592;27;20152;-77
2024/01/04 03:32:23;;;;;;;15.00;2.72;;;7.00;99.90;;;;;;5139096;27;20121;-79
2024/01/04 03:34:49;;;;;;;17.25;3.17;;;7.00;99.90;;;;;;5157070;27;20027;-79
2024/01/04 03:37:15;;;;;;;14.90;2.85;;;7.00;99.90;;;;;;5156463;27;20572;-80
2024/01/04 03:39:41;;;;;;;16.45;3.08;;;7.00;99.90;;;;;;5156929;27;20042;-79
2024/01/04 03:42:07;;;;;;;14.57;2.97;;;7.00;99.90;;;;;;5156454;27;20171;-80
2024/01/04 03:44:33;;;;;;;14.45;2.47;;;7.00;99.90;;;;;;5156653;27;20027;-79
2024/01/04 03:46:58;;;;;;;21.30;3.67;;;7.00;99.90;;;;;;5120591;27;20071;-80
2024/01/04 03:49:24;;;;;;;20.27;2.95;;;7.00;99.90;;;;;;5157339;27;20415;-78
2024/01/04 03:51:51;;;;;;;14.52;2.72;;;7.00;99.90;;;;;;5137915;27;20027;-77
2024/01/04 03:54:17;;;;;;;12.60;2.70;;;7.00;99.90;;;;;;5155633;27;20583;-78
2024/01/04 03:56:43;;;;;;;11.15;2.70;;;7.00;99.90;;;;;;5156129;27;20022;-78
2024/01/04 03:59:09;;;;;;;14.68;3.08;;;6.90;99.90;;;;;;5155222;27;20497;-79
2024/01/04 04:01:43;;;;;;;12.00;2.45;;;6.90;99.90;;;;;;5137052;27;20110;-79
2024/01/04 04:04:09;;;;;;;12.07;2.65;;;6.90;99.90;;;;;;5155531;27;20146;-78
2024/01/04 04:06:35;;;;;;;12.18;2.38;;;6.90;99.90;;;;;;5156274;27;20037;-79
2024/01/04 04:09:02;;;;;;;22.40;3.13;;;6.90;99.90;;;;;;5155289;27;20015;-79
2024/01/04 04:11:27;;;;;;;12.93;2.17;;;6.90;99.90;;;;;;5159532;27;20071;-78
2024/01/04 04:13:54;;;;;;;12.70;2.40;;;6.80;99.90;;;;;;5157554;27;20427;-78
2024/01/04 04:16:20;;;;;;;18.42;2.40;;;6.80;99.90;;;;;;5156746;27;20054;-78
2024/01/04 04:18:45;;;;;;;11.43;2.00;;;6.80;99.90;;;;;;5156377;27;20022;-79
2024/01/04 04:21:22;;;;;;;19.50;2.78;;;6.80;99.90;;;;;;5155460;27;20046;-79
2024/01/04 04:23:49;;;;;;;15.18;2.67;;;6.80;99.90;;;;;;5156007;27;20089;-78
2024/01/04 04:26:22;;;;;;;12.80;2.63;;;6.80;99.90;;;;;;5136752;27;20023;-79
2024/01/04 04:28:48;;;;;;;;;;;6.80;99.90;;;;;;5156212;27;20474;-78
2024/01/04 04:31:14;;;;;;;12.50;2.15;;;6.80;99.90;;;;;;5155152;27;19899;-78
2024/01/04 04:33:41;;;;;;;17.92;2.60;;;6.80;99.90;;;;;;5136815;27;20109;-78
2024/01/04 04:36:07;;;;;;;11.00;2.08;;;6.70;99.90;;;;;;5136364;27;20375;-79
2024/01/04 04:38:36;;;;;;;19.80;3.40;;;6.70;99.90;;;;;;5154775;27;20015;-79
2024/01/04 04:41:06;;;;;;;10.88;2.38;;;6.70;99.90;;;;;;5154680;27;20073;-78
2024/01/04 04:43:35;;;;;;;15.45;2.17;;;6.70;99.90;;;;;;5155386;27;20023;-78
2024/01/04 04:46:02;;;;;;;15.13;2.83;;;6.70;99.90;;;;;;5154939;27;20389;-79
2024/01/04 04:48:28;;;;;;;20.52;2.88;;;6.70;99.90;;;;;;5155617;27;20015;-78
2024/01/04 04:50:54;;;;;;;16.52;2.60;;;6.70;99.90;;;;;;5136116;27;20074;-79
2024/01/04 04:53:22;;;;;;;9.70;1.95;;;6.60;99.90;;;;;;5154498;27;20026;-78
2024/01/04 04:55:48;;;;;;;15.07;3.10;;;6.60;99.90;;;;;;5155104;27;20039;-78
2024/01/04 04:58:14;;;;;;;17.58;2.85;;;6.60;99.90;;;;;;5154607;27;20025;-79
2024/01/04 05:00:40;;;;;;;11.85;2.22;;;6.60;99.90;;;;;;5155222;27;20023;-77
2024/01/04 05:03:06;;;;;;;11.70;2.20;;;6.50;99.90;;;;;;5154759;27;20030;-78
2024/01/04 05:05:33;;;;;;;17.30;2.70;;;6.50;99.90;;;;;;5154991;27;20019;-78
2024/01/04 05:07:59;;;;;;;13.45;2.15;;;6.50;99.90;;;;;;5154245;27;20034;-77
2024/01/04 05:10:24;;;;;;;13.73;2.42;;;6.50;99.90;;;;;;5154351;27;20023;-77
2024/01/04 05:12:51;;;;;;;12.80;2.13;;;6.50;99.90;;;;;;5155073;27;20500;-78
2024/01/04 05:15:17;;;;;;;12.60;2.60;;;6.50;99.90;;;;;;5154617;27;20027;-79
2024/01/04 05:17:43;;;;;;;13.70;2.40;;;6.50;99.90;;;;;;5155193;27;20022;-79
2024/01/04 05:20:09;;;;;;;13.88;2.60;;;6.60;99.90;;;;;;5154353;27;20034;-78
2024/01/04 05:22:35;;;;;;;8.57;2.13;;;6.50;99.90;;;;;;5155210;27;20044;-79
2024/01/04 05:25:01;;;;;;;12.20;2.05;;;6.50;99.90;;;;;;5154799;27;20370;-78
2024/01/04 05:27:26;;;;;;;12.95;2.15;;;6.40;99.90;;;;;;5154193;27;20022;-78
2024/01/04 05:29:54;;;;;;;11.20;2.40;;;6.40;99.90;;;;;;5154743;27;20400;-78
2024/01/04 05:32:20;;;;;;;13.95;2.40;;;6.40;99.90;;;;;;5154743;27;20019;-78
2024/01/04 05:34:45;;;;;;;10.70;2.05;;;6.40;99.90;;;;;;5154894;27;20478;-79
2024/01/04 05:37:12;;;;;;;15.23;2.40;;;6.40;99.90;;;;;;5155319;27;20098;-79
2024/01/04 05:39:38;;;;;;;19.42;3.22;;;6.40;99.90;;;;;;5154904;27;20027;-78
2024/01/04 05:42:04;;;;;;;17.48;2.10;;;6.40;99.90;;;;;;5154252;27;20023;-80
2024/01/04 05:44:30;;;;;;;7.63;1.95;;;6.40;99.90;;;;;;5135455;27;20113;-78
2024/01/04 05:46:55;;;;;;;10.40;2.42;;;6.40;99.90;;;;;;5154622;27;20018;-78
2024/01/04 05:49:21;;;;;;;17.92;2.70;;;6.30;99.90;;;;;;5154462;27;20015;-79
2024/01/04 05:51:47;;;;;;;10.48;2.00;;;6.30;99.90;;;;;;5154474;27;20019;-77
2024/01/04 05:54:13;;;;;;;19.92;2.63;;;6.20;99.90;;;;;;5154152;27;20046;-79
2024/01/04 05:56:38;;;;;;;10.98;2.00;;;6.20;99.90;;;;;;5154245;27;20015;-79
2024/01/04 05:59:04;;;;;;;27.23;2.80;;;6.20;99.90;;;;;;5153851;27;20022;-79
2024/01/04 06:01:30;;;;;;;11.48;2.42;;;6.20;99.90;;;;;;5154099;27;20072;-79
2024/01/04 06:03:56;;;;;;;13.20;2.17;;;6.20;99.90;;;;;;5135921;27;20161;-78
2024/01/04 06:06:21;;;;;;;16.83;2.63;;;6.20;99.90;;;;;;5134343;27;20416;-79
2024/01/04 06:08:47;;;;;;;8.55;2.33;;;6.20;99.90;;;;;;5153727;27;20406;-79
2024/01/04 06:11:13;;;;;;;16.48;2.30;;;6.10;99.90;;;;;;5153511;27;20051;-78
2024/01/04 06:13:38;;;;;;;10.43;2.30;;;6.10;99.90;;;;;;5154189;27;20136;-78
2024/01/04 06:16:06;;;;;;;12.77;2.55;;;6.00;99.90;;;;;;5154683;27;20371;-78
2024/01/04 06:18:32;;;;;;;15.32;2.80;;;6.00;99.90;;;;;;5154396;27;20034;-77
2024/01/04 06:20:57;;;;;;;11.60;2.30;;;6.00;99.90;;;;;;5135261;27;20110;-79
2024/01/04 06:23:23;;;;;;;12.70;2.47;;;6.00;99.90;;;;;;5153888;27;20422;-80
2024/01/04 06:25:49;;;;;;;17.58;2.33;;;5.90;99.90;;;;;;5154735;27;20038;-79
2024/01/04 06:28:14;;;;;;;12.35;2.72;;;5.90;99.90;;;;;;5153870;27;20444;-79
2024/01/04 06:30:40;;;;;;;11.57;2.25;;;5.90;99.90;;;;;;5135801;27;20113;-79
2024/01/04 06:33:06;;;;;;;12.55;2.55;;;5.80;99.90;;;;;;5154798;27;20050;-79
2024/01/04 06:35:32;;;;;;;17.15;2.47;;;5.70;99.90;;;;;;5154018;27;20026;-79
2024/01/04 06:37:58;;;;;;;15.52;2.60;;;5.70;99.90;;;;;;5136231;27;20439;-78
2024/01/04 06:40:23;;;;;;;12.63;2.60;;;5.70;99.90;;;;;;5153556;27;20026;-79
2024/01/04 06:42:55;;;;;;;9.32;1.77;;;5.70;99.90;;;;;;5154521;27;20031;-79
2024/01/04 06:45:23;;;;;;;8.95;2.05;;;5.70;99.90;;;;;;5153873;27;20120;-80
2024/01/04 06:47:49;;;;;;;11.00;2.13;;;5.60;99.90;;;;;;5153832;27;20023;-79
2024/01/04 06:50:15;;;;;;;8.95;1.88;;;5.70;99.90;;;;;;5153859;27;20054;-79
2024/01/04 06:52:40;;;;;;;17.25;2.63;;;5.60;99.90;;;;;;5135436;27;20018;-78
2024/01/04 06:55:07;;;;;;;12.70;1.85;;;5.60;99.90;;;;;;5153078;27;20043;-79
2024/01/04 06:57:32;;;;;;;9.60;2.10;;;5.60;99.90;;;;;;5154087;27;20015;-79
2024/01/04 06:59:58;;;;;;;10.82;2.70;;;5.70;99.90;;;;;;5135268;27;20405;-79
2024/01/04 07:02:24;;;;;;;11.85;2.45;;;5.70;99.90;;;;;;5153242;27;20030;-79
2024/01/04 07:04:49;;;;;;;21.23;2.30;;;5.70;99.90;;;;;;5153854;27;20445;-79
2024/01/04 07:07:15;;;;;;;14.18;3.35;;;5.60;99.90;;;;;;5153248;27;20033;-79
2024/01/04 07:09:41;;;;;;;9.20;2.03;;;5.70;99.90;;;;;;5153510;27;20018;-78
2024/01/04 07:12:07;;;;;;;10.18;2.10;;;5.60;99.90;;;;;;5153015;27;20116;-78
2024/01/04 07:14:38;;;;;;;10.82;2.10;;;5.60;99.90;;;;;;5153777;27;20018;-78
2024/01/04 07:17:04;;;;;;;10.98;3.17;;;5.60;99.90;;;;;;5146497;27;20019;-78
2024/01/04 07:19:29;;;;;;;17.88;2.22;;;5.60;99.90;;;;;;5132473;28;20034;-78
2024/01/04 07:21:56;;;;;;;11.88;2.13;;;5.60;99.90;;;;;;5133163;28;20019;-78
2024/01/04 07:24:22;;;;;;;9.32;2.10;;;5.60;99.90;;;;;;5132447;28;20078;-79
2024/01/04 07:26:48;;;;;;;10.77;1.95;;;5.60;99.90;;;;;;5132852;28;20058;-78
2024/01/04 07:29:13;;;;;;;9.77;2.10;;;5.60;99.90;;;;;;5132952;28;20023;-79
2024/01/04 07:31:39;;;;;;;13.25;2.45;;;5.60;99.90;;;;;;5133244;27;20077;-78
2024/01/04 07:34:06;;;;;;;13.82;2.17;;;5.60;99.90;;;;;;5118713;27;20026;-77
2024/01/04 07:36:34;;;;;;;12.18;2.13;;;5.60;99.90;;;;;;5136354;27;20027;-78
2024/01/04 07:39:00;;;;;;;10.77;2.10;;;5.60;99.90;;;;;;5118189;27;20028;-77
2024/01/04 07:41:26;;;;;;;12.57;2.08;;;5.70;99.90;;;;;;5135647;27;20027;-77
2024/01/04 07:43:53;;;;;;;9.27;1.98;;;5.60;99.90;;;;;;5136730;27;20389;-77
2024/01/04 07:46:19;;;;;;;9.10;1.85;;;5.60;99.90;;;;;;5135744;27;20030;-78
2024/01/04 07:48:45;;;;;;;13.63;2.25;;;5.60;99.90;;;;;;5136171;27;20019;-77
2024/01/04 07:51:10;;;;;;;8.98;1.88;;;5.60;99.90;;;;;;5136165;27;20015;-79
2024/01/04 07:53:36;;;;;;;11.68;2.28;;;5.50;99.90;;;;;;5136637;27;20054;-78
2024/01/04 07:56:03;;;;;;;17.00;2.08;;;5.50;99.90;;;;;;5136111;27;20038;-78
2024/01/04 07:58:30;;;;;;;14.27;3.05;;;5.50;99.90;;;;;;5135424;27;20058;-78
2024/01/04 08:00:56;;;;;;;9.50;2.00;;;5.50;99.90;;;;;;5136495;27;20019;-78
2024/01/04 08:03:23;;;;;;;13.60;2.05;;;5.50;99.90;;;;;;5117097;27;20019;-79
2024/01/04 08:05:48;;;;;;;12.73;2.78;;;5.40;99.90;;;;;;5136543;27;20336;-79
2024/01/04 08:08:14;;;;;;;14.98;2.40;;;5.40;99.90;;;;;;5135206;27;20015;-80
2024/01/04 08:10:40;;;;;;;10.50;2.20;;;5.40;99.90;;;;;;5135312;27;20102;-78
2024/01/04 08:13:06;;;;;;;12.23;2.17;;;5.40;99.90;;;;;;5135767;27;20445;-79
2024/01/04 08:15:33;;;;;;;12.98;2.08;;;5.40;99.90;;;;;;5135164;27;20065;-79
2024/01/04 08:18:02;;;;;;;13.00;2.08;;;5.40;99.90;;;;;;5136129;27;20098;-78
2024/01/04 08:20:28;;;;;;;15.60;2.45;;;5.40;99.90;;;;;;5117101;27;20015;-79
2024/01/04 08:22:55;;;;;;;14.00;2.40;;;5.50;99.90;;;;;;5117152;27;20023;-79
2024/01/04 08:25:21;;;;;;;12.65;2.05;;;5.50;99.90;;;;;;5135050;27;20056;-79
2024/01/04 08:27:46;;;;;;;9.63;2.08;;;5.50;99.90;;;;;;5135151;27;20028;-78
2024/01/04 08:30:14;;;;;;;9.13;1.60;;;5.50;99.90;;;;;;5135666;27;20015;-79
2024/01/04 08:32:40;;;;;;;8.30;2.13;;;5.50;99.90;;;;;;5135131;27;20042;-79
2024/01/04 08:35:07;;;;;;;13.23;1.88;;;5.50;99.90;;;;;;5135242;27;20363;-78
2024/01/04 08:37:33;;;;;;;11.68;2.30;;;5.40;99.90;;;;;;5134618;27;20076;-79
2024/01/04 08:39:58;;;;;;;14.55;2.50;;;5.40;99.90;;;;;;5099679;27;20102;-79
2024/01/04 08:42:24;;;;;;;12.60;2.05;;;5.40;99.90;;;;;;5134333;27;20015;-78
2024/01/04 08:44:50;;;;;;;10.75;2.33;;;5.40;99.90;;;;;;5134898;27;20031;-78
2024/01/04 08:47:15;;;;;;;11.45;2.25;;;5.40;99.90;;;;;;5116801;27;20119;-80
2024/01/04 08:49:41;;;;;;;13.75;1.85;;;5.40;99.90;;;;;;5126706;27;20028;-78
2024/01/04 08:52:07;;;;;;;10.80;1.63;;;5.40;99.90;;;;;;5126278;27;20019;-80
2024/01/04 08:54:32;;;;;;;15.45;2.53;;;5.30;99.90;;;;;;5128394;27;20058;-80
2024/01/04 08:56:58;;;;;;;13.32;2.35;;;5.30;99.90;;;;;;5135245;27;20115;-79
2024/01/04 08:59:24;;;;;;;12.98;2.10;;;5.30;99.90;;;;;;5134208;27;20015;-80
2024/01/04 09:01:50;;;;;;;15.13;2.33;;;5.30;99.90;;;;;;5135730;27;20027;-80
2024/01/04 09:04:15;;;;;;;9.38;2.08;;;5.30;99.90;;;;;;5112099;27;20462;-80
2024/01/04 09:06:41;;;;;;;11.40;2.13;;;5.30;99.90;;;;;;5136190;27;20038;-79
2024/01/04 09:09:07;;;;;;;8.80;1.65;;;5.30;99.90;;;;;;5144756;27;20022;-79
2024/01/04 09:11:38;;;;;;;10.98;2.10;;;5.40;99.90;;;;;;5144417;27;20042;-80
2024/01/04 09:14:11;;;;;;;14.13;2.50;;;5.40;99.90;;;;;;5155775;27;20018;-77
2024/01/04 09:16:43;;;;;;;8.57;1.60;;;5.40;99.90;;;;;;5124048;27;20019;-80
2024/01/04 09:19:20;;;;;;;10.20;2.05;;;5.40;99.90;;;;;;5108180;27;20034;-80
2024/01/04 09:21:50;;;;;;;14.77;2.10;;;5.40;99.90;;;;;;5136313;27;20195;-80
2024/01/04 09:24:17;;;;;;;9.77;1.95;;;5.40;99.90;;;;;;5132333;27;20027;-80
2024/01/04 09:26:44;;;;;;;13.85;2.42;;;5.40;99.90;;;;;;5124853;27;20424;-80
2024/01/04 09:29:11;;;;;;;9.20;2.10;;;5.40;99.90;;;;;;5125785;27;20027;-80
2024/01/04 09:31:37;;;;;;;9.68;2.50;;;5.40;99.90;;;;;;5128883;27;20019;-80
2024/01/04 09:34:03;;;;;;;10.63;2.40;;;5.50;99.90;;;;;;5135216;27;20076;-79
2024/01/04 09:36:30;;;;;;;15.45;2.70;;;5.50;99.90;;;;;;5134134;27;20031;-80
2024/01/04 09:38:55;;;;;;;13.85;2.25;;;5.50;99.90;;;;;;5100432;27;20081;-79
2024/01/04 09:41:29;;;;;;;10.70;2.25;;;5.60;99.90;;;;;;5134719;27;20015;-81
2024/01/04 09:44:06;;;;;;;11.57;2.25;;;5.60;99.90;;;;;;5116528;27;20023;-79
2024/01/04 09:46:39;;;;;;;14.07;2.53;;;5.60;99.90;;;;;;5135341;27;20027;-80
2024/01/04 09:49:06;;;;;;;7.95;1.92;;;5.60;99.90;;;;;;5130527;27;20007;-80
2024/01/04 09:51:34;;;;;;;10.30;2.42;;;5.70;99.90;;;;;;5141148;27;20058;-80
2024/01/04 09:54:01;;;;;;;10.95;2.78;;;5.70;99.90;;;;;;5151396;27;20011;-78
2024/01/04 09:56:28;;;;;;;11.20;2.35;;;5.80;99.90;;;;;;5155094;27;20294;-77
2024/01/04 09:58:54;;;;;;;10.60;2.47;;;5.80;99.90;;;;;;5137915;27;20099;-79
2024/01/04 10:01:24;;;;;;;10.98;2.30;;;5.80;99.90;;;;;;5136204;27;20027;-80
2024/01/04 10:03:52;;;;;;;9.93;2.38;;;5.80;99.90;;;;;;5135765;27;20027;-80
2024/01/04 10:06:34;;;;;;;15.52;2.60;;;5.80;99.90;;;;;;5136027;27;20356;-80
2024/01/04 10:09:09;;;;;;;10.40;2.08;;;5.90;99.90;;;;;;5135534;27;20089;-78
2024/01/04 10:11:58;;;;;;;9.48;1.85;;;5.90;99.90;;;;;;5134351;27;20022;-79
2024/01/04 10:14:27;;;;;;;10.50;2.03;;;5.90;99.90;;;;;;5135595;27;20023;-80
2024/01/04 10:16:56;;;;;;;11.90;2.67;;;5.90;99.90;;;;;;5135616;27;20034;-80
2024/01/04 10:19:23;;;;;;;8.65;1.60;;;6.00;99.90;;;;;;5135023;28;20043;-81
2024/01/04 10:21:49;;;;;;;12.00;2.15;;;6.00;99.90;;;;;;5137135;28;20023;-79
2024/01/04 10:24:21;;;;;;;13.70;1.60;;;6.10;99.90;;;;;;5137837;28;20023;-80
2024/01/04 10:26:55;;;;;;;15.60;2.10;;;6.10;99.90;;;;;;5116015;28;20019;-80
2024/01/04 10:29:23;;;;;;;11.30;2.15;;;6.20;99.90;;;;;;5119213;28;20102;-80
2024/01/04 10:31:57;;;;;;;14.25;2.78;;;6.20;99.90;;;;;;5107623;28;20020;-78
2024/01/04 10:34:23;;;;;;;19.77;2.58;;;6.30;99.90;;;;;;5133008;28;20016;-80
2024/01/04 10:36:49;;;;;;;12.70;2.53;;;6.30;99.90;;;;;;5132526;28;20050;-77
2024/01/04 10:39:20;;;;;;;16.73;2.70;;;6.30;99.90;;;;;;5113532;28;20016;-78
2024/01/04 10:42:07;;;;;;;12.10;2.05;;;6.30;99.90;;;;;;5131477;28;20378;-80
2024/01/04 10:44:33;;;;;;;14.77;2.10;;;6.30;99.90;;;;;;5130633;28;20052;-79
2024/01/04 10:47:01;;;;;;;14.18;2.35;;;6.30;99.90;;;;;;5128378;28;20120;-79
2024/01/04 10:49:27;;;;;;;11.15;1.80;;;6.40;99.90;;;;;;5095106;28;20024;-80
2024/01/04 10:51:57;;;;;;;7.25;1.85;;;6.40;99.90;;;;;;5114001;28;20027;-79
2024/01/04 10:54:31;;;;;;;15.80;1.85;;;6.50;99.90;;;;;;5113740;28;20048;-80
2024/01/04 10:57:02;;;;;;;6.88;1.90;;;6.60;99.90;;;;;;5113199;28;20026;-79
2024/01/04 10:59:29;;;;;;;12.75;2.08;;;6.60;99.90;;;;;;5094200;28;20356;-80
2024/01/04 11:01:58;;;;;;;10.63;1.70;;;6.70;99.90;;;;;;5112677;28;20035;-80
2024/01/04 11:04:25;;;;;;;6.15;1.55;;;6.70;99.90;;;;;;5095401;28;20050;-79
2024/01/04 11:06:52;;;;;;;11.82;2.10;;;6.70;99.90;;;;;;5134840;27;20023;-79
2024/01/04 11:09:22;;;;;;;9.50;1.92;;;6.70;99.90;;;;;;5136642;27;20347;-78
2024/01/04 11:11:56;;;;;;;11.85;1.70;;;6.70;99.90;;;;;;5137198;27;20023;-78
2024/01/04 11:14:22;;;;;;;7.47;1.30;;;6.70;99.90;;;;;;5136876;27;20091;-79
2024/01/04 11:16:53;;;;;;;9.90;1.83;;;6.70;99.90;;;;;;5137007;27;20094;-79
2024/01/04 11:19:38;;;;;;;12.73;1.90;;;6.70;99.90;;;;;;5136878;27;20023;-79
2024/01/04 11:22:15;;;;;;;9.38;1.70;;;6.70;99.90;;;;;;5136839;27;20087;-78
2024/01/04 11:25:12;;;;;;;11.05;1.90;;;6.70;99.90;;;;;;5135859;27;20455;-79
2024/01/04 11:27:39;;;;;;;9.38;1.85;;;6.70;99.90;;;;;;5100317;27;20027;-79
2024/01/04 11:30:06;;;;;;;10.73;1.80;;;6.80;99.90;;;;;;5117830;27;20024;-79
2024/01/04 11:32:32;;;;;;;12.48;1.50;;;6.80;99.90;;;;;;5117340;27;20482;-80
2024/01/04 11:34:57;;;;;;;11.85;1.80;;;6.80;99.90;;;;;;5136154;27;20102;-80
2024/01/04 11:37:24;;;;;;;13.90;1.92;;;6.90;99.90;;;;;;5136166;27;20193;-78
2024/01/04 11:40:03;;;;;;;13.45;1.85;;;6.90;99.90;;;;;;5135820;27;20023;-80
2024/01/04 11:42:42;;;;;;;8.85;1.70;;;7.00;99.90;;;;;;5135907;27;20019;-80
2024/01/04 11:45:26;;;;;;;6.78;1.70;;;7.00;99.90;;;;;;5135827;27;20031;-78
2024/01/04 11:47:52;;;;;;;10.07;1.65;;;7.00;99.90;;;;;;5117192;27;20111;-79
2024/01/04 11:50:30;;;;;;;6.03;1.50;;;7.00;99.90;;;;;;5136098;27;20019;-79
2024/01/04 11:53:10;;;;;;;13.50;2.35;;;7.00;99.90;;;;;;5135728;27;20043;-79
2024/01/04 11:55:36;;;;;;;8.35;2.20;;;7.10;99.90;;;;;;5116283;27;20061;-80
2024/01/04 11:58:28;;;;;;;9.02;2.10;;;7.10;99.90;;;;;;5136180;27;20058;-79
2024/01/04 12:00:56;;;;;;;9.68;2.00;;;7.10;99.90;;;;;;5135394;27;20054;-80
2024/01/04 12:03:27;;;;;;;14.27;2.15;;;7.10;99.90;;;;;;5135706;27;20029;-80
2024/01/04 12:05:56;;;;;;;13.18;2.30;;;7.10;99.90;;;;;;5116834;27;20030;-80
2024/01/04 12:08:25;;;;;;;8.43;1.63;;;7.20;99.90;;;;;;5135090;27;20023;-80
2024/01/04 12:10:55;;;;;;;10.43;2.22;;;7.20;99.90;;;;;;5125853;27;20057;-79
2024/01/04 12:13:21;;;;;;;15.80;1.80;;;7.20;99.90;;;;;;5107592;27;20012;-78
2024/01/04 12:15:46;;;;;;;14.38;1.67;;;7.20;99.90;;;;;;5122835;27;20470;-79
2024/01/04 12:18:14;;;;;;;12.82;2.13;;;7.30;99.90;;;;;;5122388;27;20019;-81
2024/01/04 12:20:39;;;;;;;11.90;1.95;;;7.30;99.90;;;;;;5126144;27;20095;-80
2024/01/04 12:23:10;;;;;;;8.52;1.45;;;7.30;99.90;;;;;;5131812;27;20019;-79
2024/01/04 12:25:40;;;;;;;12.57;1.90;;;7.40;99.90;;;;;;5114065;27;20137;-80
2024/01/04 12:28:09;;;;;;;7.75;2.03;;;7.40;99.90;;;;;;5114684;27;20394;-80
2024/01/04 12:30:38;;;;;;;11.40;2.47;;;7.40;99.90;;;;;;5129255;27;20023;-80
2024/01/04 12:33:06;;;;;;;10.40;1.75;;;7.40;99.90;;;;;;5123727;27;20027;-80
2024/01/04 12:35:32;;;;;;;13.38;1.60;;;7.40;99.90;;;;;;5134424;27;20102;-81
2024/01/04 12:38:05;;;;;;;14.63;2.08;;;7.40;99.90;;;;;;5126464;27;20061;-80
2024/01/04 12:40:40;;;;;;;12.05;2.15;;;7.40;99.90;;;;;;5113694;28;20336;-81
2024/01/04 12:43:14;;;;;;;7.53;1.65;;;7.40;99.90;;;;;;5114493;28;20091;-80
2024/01/04 12:45:40;;;;;;;9.00;2.17;;;7.40;99.90;;;;;;5113643;28;20030;-81
2024/01/04 12:48:07;;;;;;;12.00;3.25;;;7.50;99.90;;;;;;5096324;28;20028;-80
2024/01/04 12:50:34;;;;;;;10.07;2.38;;;7.50;99.90;;;;;;5095508;28;20019;-81